Prague, NE

1:41 PM CST on December 07, 2016 (GMT -0600)
HADS | | Change Station

Elev 1222 ft 41.56 °N, 96.54 °W | Updated 56 minutes ago

Scattered Clouds
Scattered Clouds
23.0 °F
Feels Like 23.0 °F
N
0.0
Wind Variable Wind from North
Gusts 0.0 mph

Today
High -- | Low -- °F
--% Chance of Precip.
Yesterday
High -- | Low -- °F
Precip. -- in
Pressure 30.32 in
Visibility 10.0 miles
Clouds Scattered Clouds 11000 ft
Dew Point Not available.
Humidity Not available.
Rainfall in
Snow Depth Not available.
7:40 AM 4:57 PM
First Quarter, 55% visible
METAR KAHQ 071935Z AUTO 30014KT 10SM SCT110 M05/M14 A3032 RMK AO2 T10461138
Pressure 30.32 in
Visibility 10.0 miles
Clouds Scattered Clouds 11000 ft
Dew Point Not available.
Humidity Not available.
Rainfall in
Snow Depth Not available.
7:40 AM 4:57 PM
First Quarter, 55% visible
METAR KAHQ 071935Z AUTO 30014KT 10SM SCT110 M05/M14 A3032 RMK AO2 T10461138

10-Day Weather Forecast

Almanac

Astronomy

Dec. 07, 2016 Rise Set
Actual Time
Civil Twilight
Nautical Twilight
Astronomical Twilight
Moon
Length of Visible Light
Length of Day
Tomorrow will be .
, % of the Moon is Illuminated

Today's Extremes

State Highs State Lows

Community

WunderPhotos

Upload Photos

1,956,164 photos uploaded!

WunderBlog® & News

Nearby

Air Quality

  Air Quality AQ Index Pollutant
Not available.

Snow Depth

Station Depth Elevation

Earthquake Activity

City Distance Mag. Time & Date
Minimum magnitude displayed is 2.5.

Coastal Water Temperatures

Place Temperature

Stations

Nearby Weather Stations

Station Location Temp. Windchill Dew Point Humidity Wind Precip. Elev Updated Type
                   

Watches & Warnings

There are currently no watches in effect.